Time;durP1;ratioP1;P1;durP2;ratioP2;P2;SDS_P1;SDS_P2;PMS_P1;PMS_P2;Temp;Humidity;BMP_temperature;BMP_pressure;BME280_temperature;BME280_humidity;BME280_pressure;Samples;Min_cycle;Max_cycle;Signal;HPM_P1;HPM_P2
2022/06/18 00:01:52;;;;;;;3.58;1.83;;;17.60;99.90;;;;;;5021497;28;20037;-76
2022/06/18 00:04:23;;;;;;;3.50;1.83;;;17.50;99.90;;;;;;5025051;28;20424;-75
2022/06/18 00:06:56;;;;;;;3.13;1.92;;;17.50;99.90;;;;;;5024942;28;20029;-75
2022/06/18 00:09:30;;;;;;;2.83;1.60;;;17.40;99.90;;;;;;5020309;28;20060;-75
2022/06/18 00:14:58;;;;;;;1.55;1.35;;;17.30;99.90;;;;;;5030566;28;20055;-75
2022/06/18 00:17:23;;;;;;;1.52;1.33;;;17.30;99.90;;;;;;5041967;28;20662;-75
2022/06/18 00:19:49;;;;;;;1.58;1.48;;;17.20;99.90;;;;;;5029612;28;20124;-75
2022/06/18 00:22:18;;;;;;;3.05;1.63;;;17.20;99.90;;;;;;5024149;28;20049;-75
2022/06/18 00:24:44;;;;;;;1.80;1.33;;;17.20;99.90;;;;;;5028569;28;20021;-76
2022/06/18 00:27:14;;;;;;;3.10;1.90;;;17.20;99.90;;;;;;5025149;28;20460;-75
2022/06/18 00:29:40;;;;;;;1.40;1.30;;;17.20;99.90;;;;;;5029565;28;20026;-75
2022/06/18 00:32:06;;;;;;;4.32;2.00;;;17.10;99.90;;;;;;5023409;28;20025;-75
2022/06/18 00:34:32;;;;;;;1.92;1.38;;;17.10;99.90;;;;;;5020387;28;20037;-76
2022/06/18 00:36:58;;;;;;;4.53;2.40;;;17.10;99.90;;;;;;5025314;28;20112;-75
2022/06/18 00:39:24;;;;;;;1.30;1.20;;;17.00;99.90;;;;;;5024105;28;20120;-75
2022/06/18 00:41:54;;;;;;;7.10;1.45;;;17.00;99.90;;;;;;5028912;28;20103;-75
2022/06/18 00:44:33;;;;;;;2.65;1.60;;;16.90;99.90;;;;;;5026168;28;20071;-75
2022/06/18 00:47:16;;;;;;;2.17;1.55;;;16.90;99.90;;;;;;5028372;28;20499;-75
2022/06/18 00:50:06;;;;;;;1.88;1.38;;;16.90;99.90;;;;;;5017953;28;20033;-75
2022/06/18 00:52:50;;;;;;;1.77;1.52;;;16.80;99.90;;;;;;5026379;28;20027;-73
2022/06/18 00:55:22;;;;;;;2.00;1.70;;;16.80;99.90;;;;;;5023672;28;21768;-73
2022/06/18 00:58:14;;;;;;;2.97;1.63;;;16.80;99.90;;;;;;5026861;28;20029;-73
2022/06/18 01:00:43;;;;;;;2.75;1.50;;;16.80;99.90;;;;;;5026414;28;20115;-73
2022/06/18 01:03:30;;;;;;;1.15;1.02;;;16.70;99.90;;;;;;5026536;28;20090;-73
2022/06/18 01:05:59;;;;;;;1.83;1.52;;;16.70;99.90;;;;;;5023693;28;20067;-73
2022/06/18 01:08:26;;;;;;;1.38;1.17;;;16.70;99.90;;;;;;5022512;28;20021;-73
2022/06/18 01:10:56;;;;;;;2.60;1.80;;;16.60;99.90;;;;;;5027435;28;20037;-73
2022/06/18 01:13:25;;;;;;;2.97;1.90;;;16.50;99.90;;;;;;5024841;28;20072;-73
2022/06/18 01:15:54;;;;;;;3.22;1.70;;;16.50;99.90;;;;;;5028475;28;20127;-74
2022/06/18 01:18:20;;;;;;;2.40;1.60;;;16.50;99.90;;;;;;5028353;28;20033;-73
2022/06/18 01:20:49;;;;;;;1.85;1.27;;;16.50;99.90;;;;;;5024007;28;20037;-74
2022/06/18 01:23:52;;;;;;;3.60;1.50;;;16.40;99.90;;;;;;5024301;28;20506;-74
2022/06/18 01:26:19;;;;;;;1.98;1.58;;;16.40;99.90;;;;;;5024554;28;20511;-74
2022/06/18 01:28:45;;;;;;;2.40;1.63;;;16.40;99.90;;;;;;5028239;28;20053;-73
2022/06/18 01:31:11;;;;;;;3.67;1.92;;;16.40;99.90;;;;;;5019491;28;20059;-73
2022/06/18 01:33:37;;;;;;;2.15;1.33;;;16.40;99.90;;;;;;5024919;28;20536;-73
2022/06/18 01:36:07;;;;;;;5.05;1.60;;;16.30;99.90;;;;;;5028300;28;20036;-73
2022/06/18 01:38:35;;;;;;;1.92;1.50;;;16.30;99.90;;;;;;5025016;28;20499;-73
2022/06/18 01:43:57;;;;;;;3.00;1.80;;;16.20;99.90;;;;;;5026427;28;20044;-73
2022/06/18 01:46:25;;;;;;;4.88;1.92;;;16.20;99.90;;;;;;5016360;28;20044;-74
2022/06/18 01:48:53;;;;;;;1.90;1.45;;;16.10;99.90;;;;;;5025087;28;21910;-73
2022/06/18 01:51:23;;;;;;;3.97;1.75;;;16.10;99.90;;;;;;5028409;28;20026;-74
2022/06/18 01:53:58;;;;;;;2.78;1.70;;;16.00;99.90;;;;;;5023706;28;20399;-73
2022/06/18 01:56:34;;;;;;;3.15;1.80;;;16.00;99.90;;;;;;5011676;28;20033;-73
2022/06/18 01:59:08;;;;;;;2.65;1.40;;;15.90;99.90;;;;;;5025499;28;20037;-73
2022/06/18 02:01:38;;;;;;;2.55;2.13;;;15.90;99.90;;;;;;5019391;28;20095;-73
2022/06/18 02:04:04;;;;;;;1.80;1.48;;;15.80;99.90;;;;;;5020484;28;20544;-73
2022/06/18 02:06:34;;;;;;;2.70;1.85;;;15.80;99.90;;;;;;5021009;28;20053;-73
2022/06/18 02:09:03;;;;;;;1.65;1.25;;;15.80;99.90;;;;;;5026862;28;20104;-73
2022/06/18 02:11:29;;;;;;;4.03;1.70;;;15.80;99.90;;;;;;5021796;28;20064;-74
2022/06/18 02:14:04;;;;;;;2.05;1.48;;;15.70;99.90;;;;;;5022691;28;20107;-74
2022/06/18 02:16:35;;;;;;;1.65;1.30;;;15.70;99.90;;;;;;5029013;28;20039;-73
2022/06/18 02:19:03;;;;;;;4.68;1.98;;;15.70;99.90;;;;;;5027971;28;20590;-74
2022/06/18 02:21:32;;;;;;;2.78;1.27;;;15.60;99.90;;;;;;5023659;28;20040;-73
2022/06/18 02:23:57;;;;;;;3.92;1.90;;;15.60;99.90;;;;;;5024099;28;20043;-73
2022/06/18 02:26:27;;;;;;;2.53;1.30;;;15.50;99.90;;;;;;5026161;28;20029;-73
2022/06/18 02:28:55;;;;;;;2.53;1.45;;;15.50;99.90;;;;;;5025601;28;20026;-74
2022/06/18 02:31:25;;;;;;;1.83;1.50;;;15.40;99.90;;;;;;5025711;28;20067;-73
2022/06/18 02:34:00;;;;;;;2.60;1.48;;;15.40;99.90;;;;;;5021481;28;20029;-74
2022/06/18 02:36:34;;;;;;;1.08;0.80;;;15.50;99.90;;;;;;5025661;28;20026;-73
2022/06/18 02:39:13;;;;;;;3.10;1.40;;;15.50;99.90;;;;;;5024219;28;20044;-74
2022/06/18 02:41:40;;;;;;;5.78;1.20;;;15.50;99.90;;;;;;5025705;28;20104;-73
2022/06/18 02:44:06;;;;;;;1.65;1.52;;;15.50;99.90;;;;;;5022431;28;20128;-73
2022/06/18 02:46:32;;;;;;;1.02;1.00;;;15.50;99.90;;;;;;5024143;28;20030;-74
2022/06/18 02:49:00;;;;;;;2.70;1.38;;;15.50;99.90;;;;;;5024599;28;20045;-74
2022/06/18 02:51:26;;;;;;;1.83;1.25;;;15.40;99.90;;;;;;5028976;28;20484;-73
2022/06/18 02:53:52;;;;;;;2.88;1.50;;;15.40;99.90;;;;;;5030267;28;20052;-75
2022/06/18 02:56:17;;;;;;;4.10;1.40;;;15.40;99.90;;;;;;5023571;28;20473;-73
2022/06/18 02:58:47;;;;;;;1.60;1.20;;;15.40;99.90;;;;;;5027522;28;20428;-74
2022/06/18 03:01:18;;;;;;;1.20;1.10;;;15.40;99.90;;;;;;5022153;28;20030;-73
2022/06/18 03:03:49;;;;;;;1.83;1.45;;;15.40;99.90;;;;;;5024360;28;20053;-74
2022/06/18 03:06:17;;;;;;;1.10;1.00;;;15.30;99.90;;;;;;5022217;28;20030;-73
2022/06/18 03:08:46;;;;;;;1.10;0.88;;;15.30;99.90;;;;;;5029919;28;20635;-74
2022/06/18 03:13:57;;;;;;;1.08;0.98;;;15.40;99.90;;;;;;5025480;28;20040;-74
2022/06/18 03:16:23;;;;;;;1.50;1.40;;;15.40;99.90;;;;;;5018527;28;20030;-74
2022/06/18 03:18:52;;;;;;;7.32;1.42;;;15.40;99.90;;;;;;5022753;28;20052;-74
2022/06/18 03:21:33;;;;;;;2.22;1.67;;;15.40;99.90;;;;;;5018549;28;20075;-74
2022/06/18 03:23:58;;;;;;;2.97;1.75;;;15.40;99.90;;;;;;5026090;28;20595;-74
2022/06/18 03:26:24;;;;;;;2.80;1.42;;;15.50;99.90;;;;;;5029286;28;20137;-74
2022/06/18 03:28:50;;;;;;;2.20;1.67;;;15.50;99.90;;;;;;5028549;28;20027;-73
2022/06/18 03:31:15;;;;;;;1.80;1.40;;;15.50;99.90;;;;;;5020740;28;20021;-74
2022/06/18 03:33:41;;;;;;;1.67;1.58;;;15.50;99.90;;;;;;5023821;28;20033;-74
2022/06/18 03:36:11;;;;;;;2.38;1.77;;;15.50;99.90;;;;;;5027866;28;20510;-74
2022/06/18 03:38:36;;;;;;;2.05;1.35;;;15.60;99.90;;;;;;5023151;28;20034;-74
2022/06/18 03:41:02;;;;;;;4.65;1.67;;;15.60;99.90;;;;;;5020020;28;20033;-74
2022/06/18 03:43:28;;;;;;;1.90;1.30;;;15.60;99.90;;;;;;5025263;28;20039;-74
2022/06/18 03:46:05;;;;;;;1.80;1.10;;;15.60;99.90;;;;;;5029111;28;20025;-74
2022/06/18 03:48:43;;;;;;;1.80;1.38;;;15.70;99.90;;;;;;5027858;28;20388;-74
2022/06/18 03:51:10;;;;;;;0.95;0.90;;;15.70;99.90;;;;;;5026774;28;20037;-74
2022/06/18 03:53:36;;;;;;;1.63;1.52;;;15.70;99.90;;;;;;5027170;28;20507;-73
2022/06/18 03:56:02;;;;;;;1.30;1.20;;;15.80;99.90;;;;;;5031092;28;20033;-74
2022/06/18 03:58:28;;;;;;;3.55;1.65;;;15.80;99.90;;;;;;5025732;28;20080;-74
2022/06/18 04:00:54;;;;;;;1.42;1.33;;;15.80;99.90;;;;;;5022667;28;20087;-74
2022/06/18 04:03:19;;;;;;;3.10;0.98;;;15.80;99.90;;;;;;5024804;28;20037;-73
2022/06/18 04:05:45;;;;;;;5.45;1.17;;;16.10;99.90;;;;;;5025317;28;20033;-74
2022/06/18 04:08:15;;;;;;;2.00;1.58;;;16.30;99.90;;;;;;5029103;28;20057;-74
2022/06/18 04:10:41;;;;;;;1.55;1.10;;;16.50;99.90;;;;;;5028847;28;20029;-74
2022/06/18 04:13:07;;;;;;;1.48;1.38;;;16.60;99.90;;;;;;5026571;28;20033;-74
2022/06/18 04:15:33;;;;;;;3.47;1.33;;;16.60;99.90;;;;;;5029567;28;20055;-74
2022/06/18 04:17:58;;;;;;;2.55;1.33;;;16.70;99.90;;;;;;5025394;28;20079;-74
2022/06/18 04:20:30;;;;;;;0.95;0.90;;;16.90;99.90;;;;;;5029526;28;20025;-74
2022/06/18 04:22:56;;;;;;;1.02;0.90;;;16.90;99.90;;;;;;5026597;28;20068;-74
2022/06/18 04:25:22;;;;;;;3.33;1.10;;;17.10;99.90;;;;;;5029179;28;20701;-74
2022/06/18 04:27:48;;;;;;;2.13;1.40;;;17.20;99.90;;;;;;5030003;28;20063;-74
2022/06/18 04:30:15;;;;;;;1.10;0.95;;;17.30;99.90;;;;;;5028869;28;20032;-74
2022/06/18 04:32:40;;;;;;;0.85;0.85;;;17.30;99.90;;;;;;5025136;28;20029;-72
2022/06/18 04:35:08;;;;;;;0.95;0.95;;;17.40;96.10;;;;;;5023908;28;20026;-73
2022/06/18 04:37:35;;;;;;;1.25;0.80;;;17.80;93.90;;;;;;5020326;28;20029;-74
2022/06/18 04:40:01;;;;;;;0.80;0.70;;;17.90;94.60;;;;;;5028506;28;20037;-74
2022/06/18 04:42:27;;;;;;;1.13;1.02;;;17.90;91.50;;;;;;5024723;28;20275;-72
2022/06/18 04:44:53;;;;;;;1.52;0.98;;;18.30;89.50;;;;;;5028221;28;20053;-74
2022/06/18 04:47:18;;;;;;;1.40;0.88;;;18.30;89.50;;;;;;5028068;28;20026;-74
2022/06/18 04:49:44;;;;;;;0.95;0.82;;;18.40;90.30;;;;;;5026198;28;20391;-74
2022/06/18 04:52:09;;;;;;;1.27;0.90;;;18.50;87.20;;;;;;5024534;28;20067;-74
2022/06/18 04:54:35;;;;;;;1.35;0.90;;;18.60;84.90;;;;;;5023971;28;20369;-74
2022/06/18 04:57:01;;;;;;;4.55;0.85;;;18.70;86.40;;;;;;5029815;28;20041;-74
2022/06/18 04:59:26;;;;;;;1.58;0.90;;;18.80;82.80;;;;;;5028277;28;20029;-74
2022/06/18 05:02:05;;;;;;;0.98;0.88;;;19.00;81.30;;;;;;5018835;28;20041;-73
2022/06/18 05:04:30;;;;;;;2.42;0.88;;;19.10;82.30;;;;;;5023086;28;20037;-74
2022/06/18 05:06:56;;;;;;;0.80;0.73;;;19.20;80.60;;;;;;5018703;28;20025;-74
2022/06/18 05:09:21;;;;;;;0.80;0.70;;;19.30;78.60;;;;;;5027249;28;20025;-75
2022/06/18 05:11:47;;;;;;;1.05;0.93;;;19.40;78.10;;;;;;5020737;28;20702;-74
2022/06/18 05:14:14;;;;;;;1.23;0.90;;;19.40;77.50;;;;;;5027693;28;20048;-73
2022/06/18 05:16:40;;;;;;;3.75;0.80;;;19.40;77.10;;;;;;5027408;28;20036;-74
2022/06/18 05:19:05;;;;;;;0.77;0.60;;;19.50;77.60;;;;;;5026986;28;20026;-75
2022/06/18 05:21:31;;;;;;;0.88;0.82;;;19.70;76.00;;;;;;5028568;28;20396;-74
2022/06/18 05:23:56;;;;;;;0.85;0.70;;;19.80;73.90;;;;;;5025127;28;20047;-74
2022/06/18 05:26:22;;;;;;;7.25;1.30;;;20.00;73.30;;;;;;5017284;28;20037;-73
2022/06/18 05:28:47;;;;;;;1.13;0.90;;;20.00;72.60;;;;;;5027339;28;20041;-74
2022/06/18 05:31:13;;;;;;;0.60;0.60;;;20.10;71.60;;;;;;5027515;28;20025;-74
2022/06/18 05:33:38;;;;;;;0.85;0.82;;;20.30;70.50;;;;;;5024617;28;20056;-74
2022/06/18 05:36:05;;;;;;;0.80;0.80;;;20.40;69.80;;;;;;5024990;28;20392;-74
2022/06/18 05:38:31;;;;;;;1.40;0.80;;;20.50;69.90;;;;;;5021777;28;20546;-73
2022/06/18 05:40:56;;;;;;;0.80;0.80;;;20.50;70.50;;;;;;5026994;28;20029;-74
2022/06/18 05:43:22;;;;;;;0.60;0.60;;;20.70;68.60;;;;;;5030858;28;20099;-73
2022/06/18 05:45:47;;;;;;;1.55;0.77;;;20.80;68.30;;;;;;5027180;28;20032;-74
2022/06/18 05:48:13;;;;;;;1.98;1.13;;;20.80;68.30;;;;;;5027674;28;20416;-74
2022/06/18 05:50:39;;;;;;;0.85;0.80;;;20.80;67.90;;;;;;5027573;28;20101;-72
2022/06/18 05:53:05;;;;;;;1.20;0.90;;;20.90;68.00;;;;;;5027563;28;20057;-74
2022/06/18 05:55:30;;;;;;;1.20;1.10;;;21.00;67.70;;;;;;5028755;28;20515;-74
2022/06/18 05:57:58;;;;;;;0.68;0.68;;;21.00;67.40;;;;;;5026304;28;20445;-71
2022/06/18 06:00:27;;;;;;;1.00;0.80;;;21.10;68.00;;;;;;5026151;28;20069;-74
2022/06/18 06:02:53;;;;;;;1.17;1.00;;;21.20;67.30;;;;;;5018925;28;20224;-74
2022/06/18 06:05:18;;;;;;;0.77;0.77;;;21.20;66.40;;;;;;5026841;28;20045;-73
2022/06/18 06:07:44;;;;;;;2.03;1.35;;;21.10;66.80;;;;;;5029558;28;20034;-73
2022/06/18 06:13:25;;;;;;;5.10;0.82;;;21.40;66.80;;;;;;5023728;28;20051;-73
2022/06/18 06:15:51;;;;;;;1.90;1.13;;;21.50;67.00;;;;;;5026031;28;20029;-73
2022/06/18 06:18:19;;;;;;;1.88;1.10;;;21.50;66.50;;;;;;5020276;28;20095;-73
2022/06/18 06:20:48;;;;;;;1.17;0.95;;;21.60;67.00;;;;;;5030685;28;20045;-74
2022/06/18 06:23:14;;;;;;;2.88;1.45;;;21.60;66.30;;;;;;5027132;28;20472;-73
2022/06/18 06:25:41;;;;;;;1.08;0.90;;;21.80;66.20;;;;;;5029282;28;20384;-74
2022/06/18 06:28:11;;;;;;;1.15;1.05;;;21.80;66.20;;;;;;5025519;28;20442;-74
2022/06/18 06:30:38;;;;;;;1.25;1.10;;;21.80;67.00;;;;;;5032506;28;20025;-74
2022/06/18 06:33:03;;;;;;;1.83;1.13;;;21.90;66.10;;;;;;5029993;28;20029;-74
2022/06/18 06:35:29;;;;;;;1.20;1.10;;;21.90;66.30;;;;;;5025551;28;20044;-74
2022/06/18 06:37:54;;;;;;;1.75;1.27;;;22.00;66.10;;;;;;5027817;28;20494;-74
2022/06/18 06:40:20;;;;;;;1.63;1.33;;;22.20;64.80;;;;;;5026195;28;20648;-79
2022/06/18 06:42:48;;;;;;;0.98;0.80;;;22.30;62.80;;;;;;5027375;28;20037;-75
2022/06/18 06:46:10;;;;;;;;;;;;;;;;;;;;;
2022/06/18 06:48:35;;;;;;;1.45;1.20;;;22.40;63.70;;;;;;5003003;28;20026;-76
2022/06/18 06:51:01;;;;;;;1.92;1.25;;;22.50;63.20;;;;;;5029947;28;20047;-77
2022/06/18 06:53:26;;;;;;;1.70;1.13;;;22.50;63.00;;;;;;5028210;28;20520;-74
2022/06/18 06:58:36;;;;;;;1.38;1.27;;;22.70;65.20;;;;;;5029834;28;20059;-78
2022/06/18 07:01:02;;;;;;;1.30;1.20;;;22.60;62.10;;;;;;5030879;28;20693;-75
2022/06/18 07:03:33;;;;;;;1.08;0.98;;;22.70;63.10;;;;;;5027853;28;20061;-77
2022/06/18 07:06:01;;;;;;;1.40;1.20;;;22.40;63.30;;;;;;5025023;28;20037;-77
2022/06/18 07:08:26;;;;;;;1.98;1.50;;;22.60;62.40;;;;;;5028212;28;20040;-77
2022/06/18 07:10:52;;;;;;;2.20;1.30;;;22.90;61.60;;;;;;5021894;28;20037;-76
2022/06/18 07:13:18;;;;;;;1.67;1.17;;;22.90;61.60;;;;;;5030263;28;20488;-76
2022/06/18 07:15:45;;;;;;;3.05;1.35;;;23.10;61.60;;;;;;5026406;28;20720;-74
2022/06/18 07:18:21;;;;;;;1.40;1.30;;;23.20;60.90;;;;;;5028499;28;20484;-81
2022/06/18 07:20:47;;;;;;;2.20;1.23;;;23.30;61.20;;;;;;5026686;28;20049;-76
2022/06/18 07:23:12;;;;;;;1.60;1.20;;;23.50;59.90;;;;;;5020152;28;20080;-76
2022/06/18 07:25:39;;;;;;;1.60;1.20;;;23.60;59.30;;;;;;5020690;28;20030;-75
2022/06/18 07:28:05;;;;;;;1.17;0.98;;;23.40;60.00;;;;;;5019208;28;20117;-76
2022/06/18 07:30:30;;;;;;;1.27;1.10;;;23.50;58.80;;;;;;5026490;28;20105;-78
2022/06/18 07:32:56;;;;;;;1.20;1.10;;;23.50;59.50;;;;;;5022768;28;20041;-76
2022/06/18 07:35:24;;;;;;;1.40;1.30;;;23.50;59.60;;;;;;5028294;28;20492;-75
2022/06/18 07:37:49;;;;;;;1.50;1.10;;;23.60;59.00;;;;;;5023462;28;20025;-77
2022/06/18 07:40:16;;;;;;;1.55;1.20;;;23.70;59.20;;;;;;5026493;28;20392;-76
2022/06/18 07:42:43;;;;;;;1.65;1.10;;;23.90;58.60;;;;;;5023083;28;20035;-76
2022/06/18 07:45:18;;;;;;;1.90;1.45;;;23.80;59.50;;;;;;5026109;28;20065;-76
2022/06/18 07:47:45;;;;;;;1.38;1.00;;;23.90;59.40;;;;;;5027908;28;20029;-76
2022/06/18 07:50:11;;;;;;;1.30;1.08;;;23.80;59.00;;;;;;5023482;28;20025;-77
2022/06/18 07:52:36;;;;;;;1.60;1.05;;;24.30;58.60;;;;;;5023492;28;20120;-77
2022/06/18 07:55:03;;;;;;;1.58;1.27;;;24.30;57.90;;;;;;5024986;28;20112;-77
2022/06/18 07:57:29;;;;;;;1.88;1.20;;;24.50;57.30;;;;;;5028341;28;20084;-77
2022/06/18 07:59:54;;;;;;;1.38;1.27;;;24.70;56.60;;;;;;5026330;28;20030;-77
2022/06/18 08:02:20;;;;;;;0.65;0.65;;;24.70;57.10;;;;;;5026230;28;20532;-76
2022/06/18 08:04:45;;;;;;;1.35;1.10;;;24.70;56.80;;;;;;5027632;28;20034;-78
2022/06/18 08:07:11;;;;;;;0.85;0.85;;;24.70;56.40;;;;;;5021632;28;20022;-77
2022/06/18 08:09:38;;;;;;;1.65;1.42;;;24.80;57.10;;;;;;5027619;28;20022;-77
2022/06/18 08:12:04;;;;;;;2.13;1.10;;;24.90;55.90;;;;;;5026224;28;20026;-76
2022/06/18 08:14:29;;;;;;;1.65;0.90;;;24.80;57.00;;;;;;5027557;28;20036;-81
2022/06/18 08:16:55;;;;;;;1.20;1.05;;;24.80;56.70;;;;;;5027669;28;20034;-77
2022/06/18 08:19:20;;;;;;;3.95;0.85;;;24.70;58.20;;;;;;5024343;28;20040;-76
2022/06/18 08:21:46;;;;;;;0.98;0.93;;;24.90;56.80;;;;;;5028731;28;20043;-76
2022/06/18 08:24:16;;;;;;;1.17;1.08;;;25.20;55.70;;;;;;5026953;28;20396;-76
2022/06/18 08:26:44;;;;;;;1.38;1.20;;;25.30;55.10;;;;;;5026546;28;20033;-77
2022/06/18 08:29:14;;;;;;;2.30;1.20;;;25.00;56.30;;;;;;5026577;28;20534;-77
2022/06/18 08:31:40;;;;;;;1.10;0.97;;;25.40;55.70;;;;;;5028025;28;20039;-76
2022/06/18 08:34:05;;;;;;;1.50;0.93;;;25.40;55.70;;;;;;5024310;28;20671;-77
2022/06/18 08:36:32;;;;;;;2.47;1.30;;;25.30;56.20;;;;;;5026504;28;20060;-75
2022/06/18 08:38:58;;;;;;;1.52;1.10;;;25.50;55.30;;;;;;5026572;28;20042;-75
2022/06/18 08:41:50;;;;;;;0.95;0.90;;;25.60;55.30;;;;;;5026620;28;20033;-75
2022/06/18 08:44:24;;;;;;;0.95;0.80;;;25.80;56.10;;;;;;5024052;28;20030;-78
2022/06/18 08:47:26;;;;;;;1.30;1.20;;;25.80;55.00;;;;;;5020092;28;20492;-75
2022/06/18 08:50:14;;;;;;;1.05;0.95;;;25.90;55.90;;;;;;5022524;28;20022;-80
2022/06/18 08:52:55;;;;;;;2.08;1.00;;;26.10;54.70;;;;;;5020926;28;20025;-78
2022/06/18 08:55:41;;;;;;;0.80;0.80;;;25.70;56.40;;;;;;5020907;28;20033;-74
2022/06/18 08:58:16;;;;;;;1.42;1.10;;;26.20;55.10;;;;;;5019802;28;20029;-76
2022/06/18 09:00:58;;;;;;;1.13;0.90;;;26.40;54.60;;;;;;5023572;28;20033;-73
2022/06/18 09:03:54;;;;;;;1.73;1.10;;;26.10;55.40;;;;;;5024120;28;20501;-75
2022/06/18 09:06:38;;;;;;;1.60;1.20;;;26.30;55.70;;;;;;5017781;28;20033;-80
2022/06/18 09:09:19;;;;;;;2.50;1.38;;;26.80;54.80;;;;;;5025236;28;20025;-79
2022/06/18 09:12:05;;;;;;;0.90;0.90;;;27.00;54.30;;;;;;5027119;28;20472;-77
2022/06/18 09:14:36;;;;;;;1.83;1.38;;;27.10;54.70;;;;;;5023440;28;20036;-77
2022/06/18 09:17:32;;;;;;;1.30;0.93;;;26.50;54.30;;;;;;5022303;28;20043;-80
2022/06/18 09:20:06;;;;;;;2.95;1.00;;;26.20;55.50;;;;;;5027492;28;20033;-77
2022/06/18 09:22:35;;;;;;;2.72;1.40;;;26.90;55.10;;;;;;5026439;28;20120;-76
2022/06/18 09:25:18;;;;;;;1.27;1.17;;;26.60;54.30;;;;;;5022749;28;20037;-78
2022/06/18 09:27:49;;;;;;;16.85;1.40;;;26.50;55.80;;;;;;5021471;28;20059;-79
2022/06/18 09:30:21;;;;;;;1.35;1.25;;;27.20;54.50;;;;;;5026279;28;20044;-79
2022/06/18 09:33:14;;;;;;;1.88;1.20;;;27.50;54.80;;;;;;5020896;28;20030;-81
2022/06/18 09:35:56;;;;;;;1.15;1.02;;;27.10;53.20;;;;;;5017287;28;20041;-81
2022/06/18 09:38:35;;;;;;;2.65;1.65;;;26.40;54.80;;;;;;5023376;28;20029;-80
2022/06/18 09:41:10;;;;;;;1.77;1.27;;;26.00;55.20;;;;;;5030909;28;20037;-79
2022/06/18 09:43:45;;;;;;;1.30;1.20;;;26.60;55.50;;;;;;5025741;28;20613;-82
2022/06/18 09:46:26;;;;;;;2.10;1.10;;;26.90;54.60;;;;;;5025763;28;20029;-81
2022/06/18 09:48:53;;;;;;;1.20;1.10;;;26.50;54.80;;;;;;5019729;28;20029;-81
2022/06/18 09:51:37;;;;;;;1.02;0.95;;;26.00;56.50;;;;;;5023392;28;20028;-81
2022/06/18 09:54:05;;;;;;;1.63;1.25;;;25.40;57.60;;;;;;5022473;28;20080;-81
2022/06/18 09:56:41;;;;;;;1.55;1.05;;;26.40;55.80;;;;;;5024130;28;20090;-78
2022/06/18 09:59:22;;;;;;;1.20;1.10;;;27.40;53.90;;;;;;5021798;28;20057;-79
2022/06/18 10:01:51;;;;;;;;;;;27.50;54.10;;;;;;5028039;28;20045;-85
2022/06/18 10:07:26;;;;;;;1.40;1.00;;;27.40;55.70;;;;;;5028498;28;20044;-82
2022/06/18 10:09:57;;;;;;;3.25;1.23;;;27.20;54.40;;;;;;5020809;28;20022;-81
2022/06/18 10:12:31;;;;;;;15.05;2.20;;;25.80;56.90;;;;;;5026332;28;20044;-83
2022/06/18 10:15:00;;;;;;;1.20;1.10;;;27.10;55.60;;;;;;5028152;28;20052;-84
2022/06/18 10:17:49;;;;;;;1.30;1.20;;;27.40;55.50;;;;;;5029105;28;20029;-78
2022/06/18 10:20:44;;;;;;;3.35;1.77;;;26.90;56.20;;;;;;5022250;28;20045;-79
2022/06/18 10:23:47;;;;;;;1.13;1.02;;;26.70;55.90;;;;;;5020876;28;20026;-78
2022/06/18 10:26:42;;;;;;;2.63;1.23;;;27.80;54.80;;;;;;5020102;28;20039;-84
2022/06/18 10:29:14;;;;;;;2.92;1.63;;;28.40;53.50;;;;;;5021930;28;20032;-74
2022/06/18 10:31:56;;;;;;;1.45;1.20;;;28.80;52.40;;;;;;5023577;28;20112;-74
2022/06/18 10:34:45;;;;;;;1.30;1.20;;;28.80;52.50;;;;;;5023780;28;20186;-74
2022/06/18 10:37:39;;;;;;;1.13;1.02;;;29.20;52.00;;;;;;5019787;28;20030;-74
2022/06/18 10:40:29;;;;;;;1.40;1.27;;;29.60;51.00;;;;;;5023971;28;20061;-77
2022/06/18 10:43:06;;;;;;;1.42;1.05;;;28.50;52.30;;;;;;5025300;28;20083;-74
2022/06/18 10:45:33;;;;;;;3.50;1.42;;;29.30;52.20;;;;;;5021223;28;20464;-74
2022/06/18 10:47:58;;;;;;;2.33;1.65;;;29.60;50.60;;;;;;5027733;28;20504;-75
2022/06/18 10:50:24;;;;;;;1.58;1.48;;;29.50;51.00;;;;;;5027570;28;20037;-76
2022/06/18 10:53:01;;;;;;;1.35;1.25;;;29.70;50.40;;;;;;5023824;28;20385;-74
2022/06/18 10:55:27;;;;;;;1.67;1.50;;;29.40;51.00;;;;;;5027244;28;20455;-75
2022/06/18 10:57:53;;;;;;;1.30;1.20;;;30.00;49.80;;;;;;5017888;28;20037;-75
2022/06/18 11:00:27;;;;;;;3.00;0.98;;;28.70;52.00;;;;;;5017839;28;20037;-73
2022/06/18 11:02:55;;;;;;;1.55;1.08;;;28.80;51.90;;;;;;5026926;28;20122;-74
2022/06/18 11:05:33;;;;;;;3.30;1.30;;;29.90;49.50;;;;;;5019960;28;20093;-78
2022/06/18 11:08:03;;;;;;;1.50;1.40;;;30.30;48.50;;;;;;5031734;28;20431;-76
2022/06/18 11:10:57;;;;;;;3.30;1.40;;;30.30;49.00;;;;;;5027667;28;20048;-78
2022/06/18 11:13:28;;;;;;;1.63;1.23;;;30.30;47.50;;;;;;5025740;28;20381;-75
2022/06/18 11:16:38;;;;;;;1.85;1.20;;;30.60;47.00;;;;;;5028789;28;20025;-75
2022/06/18 11:19:18;;;;;;;1.17;1.08;;;30.80;46.80;;;;;;5029040;28;20045;-76
2022/06/18 11:21:44;;;;;;;1.63;1.50;;;30.60;46.70;;;;;;5029602;28;20496;-76
2022/06/18 11:24:15;;;;;;;1.38;1.27;;;30.10;47.70;;;;;;5031599;28;20042;-75
2022/06/18 11:26:50;;;;;;;2.85;1.58;;;30.80;46.10;;;;;;5021607;28;20032;-75
2022/06/18 11:29:41;;;;;;;2.95;1.80;;;30.80;46.50;;;;;;5024960;28;20112;-79
2022/06/18 11:32:23;;;;;;;2.53;1.55;;;31.60;45.40;;;;;;5025167;28;20116;-86
2022/06/18 11:34:52;;;;;;;3.33;1.58;;;31.70;45.80;;;;;;5029665;28;20528;-79
2022/06/18 11:37:28;;;;;;;6.13;1.65;;;31.60;45.60;;;;;;5024859;28;20060;-81
2022/06/18 11:39:57;;;;;;;2.53;1.38;;;31.00;46.80;;;;;;5028646;28;20029;-76
2022/06/18 11:42:29;;;;;;;2.20;1.45;;;31.60;45.60;;;;;;5024080;28;20030;-76
2022/06/18 11:45:32;;;;;;;2.65;1.77;;;32.00;44.40;;;;;;5028240;28;20037;-77
2022/06/18 11:48:09;;;;;;;5.05;1.75;;;32.50;44.70;;;;;;5028313;28;20025;-75
2022/06/18 11:50:45;;;;;;;1.80;1.50;;;31.20;46.20;;;;;;5023332;28;20053;-76
2022/06/18 11:53:17;;;;;;;5.85;2.13;;;32.20;44.40;;;;;;5028841;28;20021;-76
2022/06/18 11:55:46;;;;;;;1.60;1.50;;;31.90;45.00;;;;;;5020474;28;20033;-75
2022/06/18 11:58:30;;;;;;;7.20;1.58;;;31.90;44.20;;;;;;5025864;28;20064;-78
2022/06/18 12:01:10;;;;;;;3.35;1.73;;;32.70;42.70;;;;;;5023409;28;20503;-78
2022/06/18 12:03:48;;;;;;;8.45;1.42;;;32.90;42.40;;;;;;5023820;28;20053;-77
2022/06/18 12:06:35;;;;;;;1.92;1.48;;;31.80;44.60;;;;;;5023252;28;20507;-76
2022/06/18 12:09:01;;;;;;;1.63;1.15;;;32.40;43.60;;;;;;5027412;28;20056;-77
2022/06/18 12:11:39;;;;;;;1.83;1.55;;;32.80;42.80;;;;;;5027763;28;20056;-77
2022/06/18 12:14:47;;;;;;;1.48;1.38;;;33.40;42.40;;;;;;5024868;28;20025;-79
2022/06/18 12:17:34;;;;;;;2.45;2.15;;;33.00;42.00;;;;;;4983426;28;20046;-76
2022/06/18 12:20:22;;;;;;;1.90;1.50;;;32.50;44.30;;;;;;4979966;28;20031;-79
2022/06/18 12:23:00;;;;;;;1.50;1.23;;;32.10;43.90;;;;;;5015351;28;20112;-75
2022/06/18 12:25:52;;;;;;;8.45;1.70;;;32.10;43.90;;;;;;5030153;28;20380;-75
2022/06/18 12:28:42;;;;;;;1.73;1.50;;;31.70;44.00;;;;;;5021736;28;20163;-78
2022/06/18 12:31:14;;;;;;;3.33;1.85;;;31.10;44.40;;;;;;5028533;28;20369;-79
2022/06/18 12:34:08;;;;;;;2.10;1.45;;;32.30;45.10;;;;;;5025450;28;20460;-77
2022/06/18 12:36:49;;;;;;;3.15;1.77;;;33.10;43.20;;;;;;5027996;28;20124;-80
2022/06/18 12:39:47;;;;;;;1.50;1.40;;;34.00;41.20;;;;;;5028095;28;20057;-80
2022/06/18 12:42:20;;;;;;;3.15;2.33;;;34.00;41.20;;;;;;5021886;28;20040;-78
2022/06/18 12:45:06;;;;;;;2.63;1.80;;;34.60;42.00;;;;;;5011977;28;20680;-79
2022/06/18 12:48:01;;;;;;;3.95;1.83;;;34.50;41.00;;;;;;5018955;28;20034;-79
2022/06/18 12:50:36;;;;;;;1.45;1.35;;;33.00;41.60;;;;;;5011928;28;20036;-79
2022/06/18 12:53:19;;;;;;;3.60;1.60;;;32.10;44.20;;;;;;5021270;28;20025;-79
2022/06/18 12:56:02;;;;;;;2.33;1.48;;;32.60;44.70;;;;;;5029624;28;20029;-79
2022/06/18 12:59:02;;;;;;;2.08;1.65;;;34.50;40.70;;;;;;5016629;28;20029;-79
2022/06/18 13:01:59;;;;;;;3.58;2.08;;;35.60;39.50;;;;;;5019668;28;20029;-77
2022/06/18 13:04:43;;;;;;;9.88;1.60;;;37.00;37.00;;;;;;5023817;28;20033;-78
2022/06/18 13:07:30;;;;;;;5.38;1.58;;;36.70;37.40;;;;;;5022633;28;20412;-79
2022/06/18 13:10:08;;;;;;;3.03;1.80;;;35.30;39.40;;;;;;5028006;28;20025;-79
2022/06/18 13:12:45;;;;;;;2.20;1.60;;;36.40;37.20;;;;;;5024030;28;20116;-78
2022/06/18 13:15:28;;;;;;;3.05;1.70;;;36.40;37.00;;;;;;5014183;28;20064;-78
2022/06/18 13:18:01;;;;;;;4.53;1.85;;;37.20;35.70;;;;;;5025922;28;20018;-79
2022/06/18 13:20:42;;;;;;;4.50;1.67;;;37.30;35.50;;;;;;5017880;28;20060;-82
2022/06/18 13:29:03;;;;;;;1.65;1.55;;;35.60;37.70;;;;;;5022040;28;20039;-80
2022/06/18 13:31:56;;;;;;;9.57;2.42;;;34.70;39.10;;;;;;5025408;28;20084;-79
2022/06/18 13:35:01;;;;;;;5.10;2.28;;;36.50;37.10;;;;;;5024874;28;20032;-81
2022/06/18 13:37:53;;;;;;;4.40;2.25;;;37.80;35.10;;;;;;4977658;28;20374;-79
2022/06/18 13:40:32;;;;;;;1.88;1.50;;;38.40;34.60;;;;;;5022786;28;20124;-80